False Pass, AK (99583)

4:22 PM AKST on February 20, 2017 (GMT -0900)
False Pass | | Change Station

Elev 20 ft 54.85 °N, 163.41 °W | Updated 21 minutes ago

Overcast
Overcast
27 °F
Feels Like 14 °F
N
18
Wind Variable Wind from SSE
Gusts 25 mph

Today
High -- | Low -- °F
--% Chance of Precip.
Yesterday
High -- | Low -- °F
Precip. -- in
Pressure 30.21 in
Visibility 10.0 miles
Clouds Overcast 2100 ft
Windchill 14 °F
Dew Point 20 °F
Humidity 75%
Rainfall 0.00 in
Snow Depth Not available.
9:03 AM 7:12 PM
Waning Crescent, 29% visible
METAR PAKF 210101Z AUTO 15016G22KT 10SM OVC021 M03/M07 A2991 RMK AO2 UPB00230053E0028SNE00230053B00230055E0008 SLP228 P0000 T10281067 FZRANO $
Pressure 30.21 in
Visibility 10.0 miles
Clouds Overcast 2100 ft
Windchill 14 °F
Dew Point 20 °F
Humidity 75%
Rainfall 0.00 in
Snow Depth Not available.
9:03 AM 7:12 PM
Waning Crescent, 29% visible
METAR PAKF 210101Z AUTO 15016G22KT 10SM OVC021 M03/M07 A2991 RMK AO2 UPB00230053E0028SNE00230053B00230055E0008 SLP228 P0000 T10281067 FZRANO $

Get Your Daily Forecast Email!

Thanks for signing up!

Be on the lookout for a verification email in your inbox.

You'll start receiving the daily forecast at 8 AM.

×

10-Day Weather Forecast

Almanac

Astronomy

Feb. 20, 2017 Rise Set
Actual Time
Civil Twilight
Nautical Twilight
Astronomical Twilight
Moon
Length of Visible Light
Length of Day
Tomorrow will be .
, % of the Moon is Illuminated

Today's Extremes

State Highs State Lows

Community

WunderPhotos

Upload Photos

1,962,540 photos uploaded!

WunderBlog® & News

Nearby

Air Quality

  Air Quality AQ Index Pollutant
Not available.

Snow Depth

Station Depth Elevation

Earthquake Activity

City Distance Mag. Time & Date
Minimum magnitude displayed is 2.5.

Coastal Water Temperatures

Place Temperature

Stations

Nearby Weather Stations

Station Location Temp. Windchill Dew Point Humidity Wind Precip. Elev Updated Type
                   

Watches & Warnings

There are currently no watches in effect.